createdAt,value
2019-02-04T00:00:59.723Z,-1.13
2019-02-04T00:03:31.898Z,-1.12
2019-02-04T00:06:01.078Z,-1.07
2019-02-04T00:08:30.399Z,-1.09
2019-02-04T00:10:59.613Z,-1.11
2019-02-04T00:13:29.021Z,-1.12
2019-02-04T00:15:58.220Z,-1.13
2019-02-04T00:18:27.477Z,-1.13
2019-02-04T00:20:56.760Z,-1.13
2019-02-04T00:23:26.011Z,-1.15
2019-02-04T00:25:55.271Z,-1.17
2019-02-04T00:28:24.538Z,-1.16
2019-02-04T00:30:53.814Z,-1.11
2019-02-04T00:33:23.071Z,-1.07
2019-02-04T00:35:52.314Z,-1.07
2019-02-04T00:38:21.587Z,-1.07
2019-02-04T00:40:52.599Z,-1.13
2019-02-04T00:43:21.921Z,-1.16
2019-02-04T00:45:51.167Z,-1.17
2019-02-04T00:48:20.408Z,-1.19
2019-02-04T00:50:50.093Z,-1.17
2019-02-04T00:53:19.316Z,-1.17
2019-02-04T00:55:48.564Z,-1.15
2019-02-04T00:58:17.768Z,-1.16
2019-02-04T01:00:47.064Z,-1.16
2019-02-04T01:03:16.620Z,-1.22
2019-02-04T01:05:46.097Z,-1.21
2019-02-04T01:08:15.375Z,-1.25
2019-02-04T01:10:44.687Z,-1.27
2019-02-04T01:13:13.963Z,-1.28
2019-02-04T01:15:43.163Z,-1.33
2019-02-04T01:18:12.382Z,-1.32
2019-02-04T01:20:41.623Z,-1.33
2019-02-04T01:23:10.860Z,-1.34
2019-02-04T01:25:40.106Z,-1.36
2019-02-04T01:28:09.362Z,-1.34
2019-02-04T01:30:38.569Z,-1.32
2019-02-04T01:33:07.811Z,-1.28
2019-02-04T01:35:37.040Z,-1.25
2019-02-04T01:38:06.476Z,-1.18
2019-02-04T01:40:35.735Z,-1.07
2019-02-04T01:43:05.093Z,-1.09
2019-02-04T01:45:34.340Z,-1.10
2019-02-04T01:48:04.133Z,-1.07
2019-02-04T01:50:33.384Z,-1.08
2019-02-04T01:53:02.628Z,-1.05
2019-02-04T01:55:31.788Z,-1.01
2019-02-04T01:58:01.034Z,-1.03
2019-02-04T02:00:32.381Z,-0.94
2019-02-04T02:03:01.642Z,-0.93
2019-02-04T02:05:30.910Z,-0.93
2019-02-04T02:08:00.116Z,-0.83
2019-02-04T02:10:29.368Z,-0.86
2019-02-04T02:12:58.616Z,-0.89
2019-02-04T02:15:27.817Z,-0.91
2019-02-04T02:17:57.237Z,-0.93
2019-02-04T02:20:27.583Z,-0.88
2019-02-04T02:22:56.832Z,-0.88
2019-02-04T02:25:27.102Z,-0.91
2019-02-04T02:27:56.497Z,-0.95
2019-02-04T02:30:27.599Z,-0.85
2019-02-04T02:32:56.830Z,-0.86
2019-02-04T02:35:27.005Z,-0.92
2019-02-04T02:37:56.272Z,-0.94
2019-02-04T02:40:32.790Z,-0.89
2019-02-04T02:43:02.402Z,-0.80
2019-02-04T02:45:31.601Z,-0.87
2019-02-04T02:48:01.105Z,-0.97
2019-02-04T02:50:30.352Z,-1.03
2019-02-04T02:52:59.556Z,-1.06
2019-02-04T02:55:28.788Z,-0.98
2019-02-04T02:57:58.365Z,-1.00
2019-02-04T03:00:28.240Z,-1.06
2019-02-04T03:02:57.459Z,-1.02
2019-02-04T03:05:26.767Z,-0.99
2019-02-04T03:07:55.969Z,-1.00
2019-02-04T03:10:27.278Z,-0.95
2019-02-04T03:12:56.512Z,-1.03
2019-02-04T03:15:25.756Z,-1.04
2019-02-04T03:17:54.977Z,-1.12
2019-02-04T03:20:24.226Z,-1.16
2019-02-04T03:22:53.470Z,-1.16
2019-02-04T03:25:23.082Z,-1.10
2019-02-04T03:27:52.321Z,-1.07
2019-02-04T03:30:27.280Z,-0.99
2019-02-04T03:32:56.477Z,-1.00
2019-02-04T03:35:25.837Z,-0.93
2019-02-04T03:37:55.037Z,-0.99
2019-02-04T03:40:27.176Z,-1.06
2019-02-04T03:42:56.436Z,-1.11
2019-02-04T03:45:25.688Z,-1.12
2019-02-04T03:48:04.552Z,-1.16
2019-02-04T03:50:26.232Z,-1.18
2019-02-04T03:52:55.708Z,-1.10
2019-02-04T03:55:24.949Z,-1.02
2019-02-04T03:57:54.148Z,-0.87
2019-02-04T04:00:25.979Z,-0.69
2019-02-04T04:02:55.315Z,-0.57
2019-02-04T04:05:24.939Z,-0.41
2019-02-04T04:07:54.144Z,-0.22
2019-02-04T04:10:23.384Z,-0.10
2019-02-04T04:12:52.609Z,0.04
2019-02-04T04:15:21.854Z,0.08
2019-02-04T04:17:51.051Z,0.13
2019-02-04T04:20:20.933Z,0.03
2019-02-04T04:22:50.144Z,-0.12
2019-02-04T04:25:19.399Z,-0.25
2019-02-04T04:27:48.676Z,-0.32
2019-02-04T04:30:25.481Z,-0.37
2019-02-04T04:32:55.042Z,-0.36
2019-02-04T04:35:24.294Z,-0.47
2019-02-04T04:37:53.576Z,-0.43
2019-02-04T04:40:22.775Z,-0.49
2019-02-04T04:42:51.999Z,-0.46
2019-02-04T04:45:23.713Z,-0.44
2019-02-04T04:47:53.405Z,-0.45
2019-02-04T04:50:22.654Z,-0.57
2019-02-04T04:52:51.932Z,-0.55
2019-02-04T04:55:23.940Z,-0.47
2019-02-04T04:57:53.193Z,-0.36
2019-02-04T05:00:26.702Z,-0.33
2019-02-04T05:02:55.920Z,-0.42
2019-02-04T05:05:25.172Z,-0.47
2019-02-04T05:07:54.377Z,-0.41
2019-02-04T05:10:23.603Z,-0.40
2019-02-04T05:12:52.820Z,-0.38
2019-02-04T05:15:24.439Z,-0.45
2019-02-04T05:17:54.780Z,-0.44
2019-02-04T05:20:24.034Z,-0.44
2019-02-04T05:22:53.225Z,-0.40
2019-02-04T05:25:22.460Z,-0.35
2019-02-04T05:27:52.836Z,-0.45
2019-02-04T05:30:23.812Z,-0.55
2019-02-04T05:32:53.024Z,-0.60
2019-02-04T05:35:22.245Z,-0.71
2019-02-04T05:37:51.444Z,-0.79
2019-02-04T05:40:20.682Z,-0.85
2019-02-04T05:42:50.170Z,-0.93
2019-02-04T05:45:20.341Z,-0.94
2019-02-04T05:47:49.610Z,-1.05
2019-02-04T05:50:20.003Z,-1.09
2019-02-04T05:52:49.470Z,-1.18
2019-02-04T05:55:20.058Z,-1.19
2019-02-04T05:57:49.298Z,-1.14
2019-02-04T06:00:25.707Z,-1.23
2019-02-04T06:02:56.023Z,-1.31
2019-02-04T06:05:25.217Z,-1.36
2019-02-04T06:07:54.484Z,-1.41
2019-02-04T06:10:23.681Z,-1.48
2019-02-04T06:12:52.889Z,-1.43
2019-02-04T06:15:22.135Z,-1.49
2019-02-04T06:17:51.379Z,-1.52
2019-02-04T06:20:24.491Z,-1.55
2019-02-04T06:22:54.020Z,-1.53
2019-02-04T06:25:23.233Z,-1.55
2019-02-04T06:27:52.469Z,-1.58
2019-02-04T06:30:21.676Z,-1.60
2019-02-04T06:32:50.927Z,-1.59
2019-02-04T06:35:20.248Z,-1.56
2019-02-04T06:37:50.028Z,-1.59
2019-02-04T06:40:19.235Z,-1.57
2019-02-04T06:42:48.437Z,-1.61
2019-02-04T06:45:18.249Z,-1.56
2019-02-04T06:47:47.453Z,-1.57
2019-02-04T06:50:18.429Z,-1.56
2019-02-04T06:52:47.675Z,-1.55
2019-02-04T06:55:31.493Z,-1.53
2019-02-04T06:58:00.748Z,-1.47
2019-02-04T07:00:29.949Z,-1.36
2019-02-04T07:02:59.669Z,-1.40
2019-02-04T07:05:29.221Z,-1.34
2019-02-04T07:07:58.454Z,-1.31
2019-02-04T07:10:28.021Z,-1.31
2019-02-04T07:12:57.260Z,-1.29
2019-02-04T07:15:26.460Z,-1.27
2019-02-04T07:18:16.623Z,-1.23
2019-02-04T07:20:45.835Z,-1.21
2019-02-04T07:23:15.086Z,-1.19
2019-02-04T07:25:44.302Z,-1.14
2019-02-04T07:28:13.518Z,-1.11
2019-02-04T07:30:43.832Z,-1.01
2019-02-04T07:33:13.046Z,-0.89
2019-02-04T07:35:42.298Z,-0.84
2019-02-04T07:38:11.502Z,-0.78
2019-02-04T07:40:40.749Z,-0.73
2019-02-04T07:43:09.952Z,-0.68
2019-02-04T07:45:39.175Z,-0.59
2019-02-04T07:48:08.414Z,-0.51
2019-02-04T07:50:37.643Z,-0.44
2019-02-04T07:53:06.880Z,-0.37
2019-02-04T07:55:36.094Z,-0.27
2019-02-04T07:58:05.345Z,-0.18
2019-02-04T08:00:34.666Z,-0.08
2019-02-04T08:03:04.161Z,0.03
2019-02-04T08:05:33.736Z,0.11
2019-02-04T08:08:02.989Z,0.19
2019-02-04T08:10:33.101Z,0.30
2019-02-04T08:13:02.725Z,0.37
2019-02-04T08:15:36.550Z,0.48
2019-02-04T08:18:06.518Z,0.59
2019-02-04T08:20:35.832Z,0.80
2019-02-04T08:23:05.234Z,0.94
2019-02-04T08:25:34.462Z,1.11
2019-02-04T08:28:04.104Z,1.29
2019-02-04T08:30:38.325Z,1.40
2019-02-04T08:33:06.901Z,1.60
2019-02-04T08:35:36.184Z,1.78
2019-02-04T08:38:05.560Z,2.01
2019-02-04T08:40:35.084Z,2.24
2019-02-04T08:43:04.349Z,2.23
2019-02-04T08:45:33.575Z,2.31
2019-02-04T08:48:02.834Z,2.43
2019-02-04T08:50:32.134Z,2.48
2019-02-04T08:53:01.690Z,2.55
2019-02-04T08:55:31.021Z,2.61
2019-02-04T08:58:00.228Z,2.70
2019-02-04T09:00:29.709Z,2.77
2019-02-04T09:02:59.121Z,2.82
2019-02-04T09:05:28.321Z,2.92
2019-02-04T09:07:57.562Z,3.00
2019-02-04T09:10:29.450Z,3.13
2019-02-04T09:13:00.000Z,3.22
2019-02-04T09:15:29.208Z,3.26
2019-02-04T09:17:58.609Z,3.32
2019-02-04T09:20:27.844Z,3.43
2019-02-04T09:22:57.151Z,3.48
2019-02-04T09:25:27.921Z,3.53
2019-02-04T09:27:58.155Z,3.59
2019-02-04T09:30:28.507Z,3.67
2019-02-04T09:32:59.396Z,3.74
2019-02-04T09:35:28.839Z,3.81
2019-02-04T09:37:58.109Z,3.87
2019-02-04T09:40:38.815Z,3.93
2019-02-04T09:43:08.182Z,3.97
2019-02-04T09:45:37.416Z,4.06
2019-02-04T09:48:12.520Z,4.08
2019-02-04T09:50:44.090Z,4.20
2019-02-04T09:53:16.577Z,4.21
2019-02-04T09:55:45.883Z,4.27
2019-02-04T09:58:15.141Z,4.29
2019-02-04T10:00:44.347Z,4.39
2019-02-04T10:03:13.554Z,4.51
2019-02-04T10:05:42.793Z,4.50
2019-02-04T10:08:12.007Z,4.59
2019-02-04T10:10:41.590Z,4.61
2019-02-04T10:13:10.866Z,4.70
2019-02-04T10:15:45.579Z,4.75
2019-02-04T10:18:13.745Z,4.79
2019-02-04T10:20:42.945Z,4.85
2019-02-04T10:23:12.182Z,5.01
2019-02-04T10:25:43.251Z,5.02
2019-02-04T10:28:14.755Z,5.10
2019-02-04T10:30:44.314Z,5.15
2019-02-04T10:33:13.947Z,5.27
2019-02-04T10:35:43.129Z,5.26
2019-02-04T10:38:16.381Z,5.35
2019-02-04T10:40:44.646Z,5.42
2019-02-04T10:43:14.082Z,5.36
2019-02-04T10:45:43.265Z,5.49
2019-02-04T10:48:12.745Z,5.48
2019-02-04T10:50:46.899Z,5.65
2019-02-04T10:53:13.156Z,5.61
2019-02-04T10:55:42.361Z,5.77
2019-02-04T10:58:13.182Z,5.84
2019-02-04T11:00:43.415Z,5.66
2019-02-04T11:03:12.750Z,5.84
2019-02-04T11:05:43.466Z,5.71
2019-02-04T11:08:14.135Z,5.64
2019-02-04T11:10:43.489Z,5.59
2019-02-04T11:13:16.711Z,5.73
2019-02-04T11:15:46.243Z,5.85
2019-02-04T11:18:15.598Z,5.90
2019-02-04T11:20:44.924Z,5.77
2019-02-04T11:23:14.145Z,5.90
2019-02-04T11:25:43.350Z,5.76
2019-02-04T11:28:12.661Z,5.98
2019-02-04T11:30:44.974Z,6.12
2019-02-04T11:33:14.207Z,6.05
2019-02-04T11:35:43.415Z,5.97
2019-02-04T11:38:12.698Z,5.97
2019-02-04T11:40:42.023Z,6.25
2019-02-04T11:43:11.655Z,6.22
2019-02-04T11:45:40.961Z,6.31
2019-02-04T11:48:12.204Z,6.34
2019-02-04T11:50:42.372Z,6.41
2019-02-04T11:53:11.623Z,6.50
2019-02-04T11:55:40.814Z,6.44
2019-02-04T11:58:10.171Z,6.49
2019-02-04T12:00:39.444Z,6.69
2019-02-04T12:03:10.932Z,6.44
2019-02-04T12:05:40.438Z,6.64
2019-02-04T12:08:11.223Z,6.58
2019-02-04T12:10:52.164Z,6.37
2019-02-04T12:13:21.579Z,6.30
2019-02-04T12:15:51.219Z,6.61
2019-02-04T12:18:20.419Z,6.64
2019-02-04T12:20:49.653Z,6.48
2019-02-04T12:23:19.390Z,6.64
2019-02-04T12:25:48.595Z,6.57
2019-02-04T12:28:17.835Z,6.85
2019-02-04T12:30:47.091Z,6.74
2019-02-04T12:33:16.577Z,6.78
2019-02-04T12:35:45.776Z,6.88
2019-02-04T12:38:15.413Z,6.81
2019-02-04T12:40:44.642Z,6.91
2019-02-04T12:43:13.876Z,6.85
2019-02-04T12:45:43.564Z,6.68
2019-02-04T12:48:12.756Z,6.76
2019-02-04T12:50:42.022Z,6.60
2019-02-04T12:53:11.641Z,6.61
2019-02-04T12:55:40.895Z,6.50
2019-02-04T12:58:10.128Z,6.46
2019-02-04T13:00:39.522Z,6.64
2019-02-04T13:03:08.820Z,6.70
2019-02-04T13:05:43.292Z,6.52
2019-02-04T13:08:12.973Z,6.35
2019-02-04T13:10:42.224Z,6.21
2019-02-04T13:13:15.365Z,6.44
2019-02-04T13:15:44.564Z,6.35
2019-02-04T13:18:13.770Z,6.17
2019-02-04T13:20:43.885Z,6.07
2019-02-04T13:23:13.215Z,6.09
2019-02-04T13:25:43.521Z,5.93
2019-02-04T13:28:14.193Z,6.05
2019-02-04T13:30:43.423Z,6.13
2019-02-04T13:33:12.686Z,6.14
2019-02-04T13:35:41.939Z,6.20
2019-02-04T13:38:11.272Z,6.14
2019-02-04T13:40:40.852Z,6.10
2019-02-04T13:43:10.233Z,6.20
2019-02-04T13:45:39.523Z,6.29
2019-02-04T13:48:08.765Z,6.37
2019-02-04T13:50:37.966Z,6.22
2019-02-04T13:53:07.305Z,6.14
2019-02-04T13:55:39.007Z,6.12
2019-02-04T13:58:08.261Z,6.18
2019-02-04T14:00:37.657Z,6.08
2019-02-04T14:03:07.474Z,6.13
2019-02-04T14:05:36.790Z,6.13
2019-02-04T14:08:06.332Z,6.11
2019-02-04T14:10:37.715Z,6.05
2019-02-04T14:13:07.190Z,6.13
2019-02-04T14:15:36.385Z,6.03
2019-02-04T14:18:06.455Z,6.05
2019-02-04T14:20:35.699Z,6.11
2019-02-04T14:23:04.910Z,6.14
2019-02-04T14:25:34.292Z,6.02
2019-02-04T14:28:05.259Z,6.02
2019-02-04T14:30:37.432Z,5.93
2019-02-04T14:33:06.766Z,5.90
2019-02-04T14:35:35.966Z,5.91
2019-02-04T14:38:06.172Z,5.80
2019-02-04T14:40:35.425Z,5.69
2019-02-04T14:43:10.425Z,5.65
2019-02-04T14:45:45.498Z,5.62
2019-02-04T14:48:37.172Z,5.60
2019-02-04T14:51:28.218Z,5.58
2019-02-04T14:54:05.581Z,5.56
2019-02-04T14:57:11.269Z,5.49
2019-02-04T14:59:44.053Z,5.38
2019-02-04T15:02:35.382Z,5.40
2019-02-04T15:05:29.198Z,5.39
2019-02-04T15:08:13.429Z,5.30
2019-02-04T15:10:48.884Z,5.26
2019-02-04T15:13:33.326Z,5.22
2019-02-04T15:16:12.985Z,5.15
2019-02-04T15:19:20.323Z,5.13
2019-02-04T15:22:09.132Z,5.05
2019-02-04T15:25:04.363Z,4.95
2019-02-04T15:28:09.931Z,4.93
2019-02-04T15:31:04.742Z,4.85
2019-02-04T15:33:55.085Z,4.74
2019-02-04T15:36:33.694Z,4.65
2019-02-04T15:39:33.269Z,4.61
2019-02-04T15:42:17.778Z,4.58
2019-02-04T15:45:04.938Z,4.49
2019-02-04T15:47:46.395Z,4.42
2019-02-04T15:50:36.924Z,4.39
2019-02-04T15:53:06.487Z,4.32
2019-02-04T15:55:35.697Z,4.30
2019-02-04T15:58:05.163Z,4.34
2019-02-04T16:00:34.371Z,4.26
2019-02-04T16:03:04.239Z,4.37
2019-02-04T16:05:33.438Z,4.30
2019-02-04T16:08:02.707Z,4.30
2019-02-04T16:10:31.931Z,4.29
2019-02-04T16:13:01.494Z,4.28
2019-02-04T16:15:30.773Z,4.22
2019-02-04T16:18:00.350Z,4.22
2019-02-04T16:20:29.669Z,4.18
2019-02-04T16:22:59.824Z,4.19
2019-02-04T16:25:29.187Z,4.20
2019-02-04T16:27:58.500Z,4.12
2019-02-04T16:30:27.942Z,4.21
2019-02-04T16:32:57.477Z,4.16
2019-02-04T16:35:26.741Z,4.17
2019-02-04T16:37:56.006Z,4.17
2019-02-04T16:40:25.212Z,4.17
2019-02-04T16:42:54.470Z,4.17
2019-02-04T16:45:24.789Z,4.14
2019-02-04T16:47:54.263Z,4.16
2019-02-04T16:50:25.654Z,4.14
2019-02-04T16:52:55.089Z,4.07
2019-02-04T16:55:25.121Z,4.10
2019-02-04T16:57:54.725Z,4.07
2019-02-04T17:00:29.291Z,4.16
2019-02-04T17:02:58.592Z,4.18
2019-02-04T17:05:28.127Z,4.15
2019-02-04T17:07:57.486Z,4.19
2019-02-04T17:10:27.207Z,4.12
2019-02-04T17:12:56.466Z,4.10
2019-02-04T17:15:26.284Z,4.12
2019-02-04T17:17:55.548Z,4.06
2019-02-04T17:20:30.227Z,4.03
2019-02-04T17:22:59.509Z,4.03
2019-02-04T17:25:28.713Z,4.01
2019-02-04T17:27:57.979Z,3.99
2019-02-04T17:30:27.234Z,3.92
2019-02-04T17:32:56.598Z,3.91
2019-02-04T17:35:25.808Z,3.89
2019-02-04T17:37:55.066Z,3.89
2019-02-04T17:40:24.804Z,3.84
2019-02-04T17:42:54.495Z,3.85
2019-02-04T17:45:23.756Z,3.92
2019-02-04T17:47:53.905Z,3.95
2019-02-04T17:50:23.448Z,3.96
2019-02-04T17:52:52.742Z,4.00
2019-02-04T17:55:26.531Z,4.01
2019-02-04T17:57:56.048Z,4.13
2019-02-04T18:00:30.531Z,4.07
2019-02-04T18:02:59.836Z,4.11
2019-02-04T18:05:29.105Z,4.12
2019-02-04T18:07:58.321Z,4.13
2019-02-04T18:10:27.523Z,4.10
2019-02-04T18:12:56.728Z,4.13
2019-02-04T18:15:25.987Z,4.18
2019-02-04T18:17:55.204Z,4.20
2019-02-04T18:20:24.577Z,4.23
2019-02-04T18:22:53.855Z,4.21
2019-02-04T18:25:23.446Z,4.18
2019-02-04T18:27:52.691Z,4.19
2019-02-04T18:30:24.604Z,4.23
2019-02-04T18:32:53.808Z,4.19
2019-02-04T18:35:23.388Z,4.17
2019-02-04T18:37:52.609Z,4.17
2019-02-04T18:40:23.290Z,4.20
2019-02-04T18:42:52.991Z,4.17
2019-02-04T18:45:31.316Z,4.12
2019-02-04T18:48:01.540Z,4.24
2019-02-04T18:50:31.165Z,4.27
2019-02-04T18:53:00.701Z,4.20
2019-02-04T18:55:34.093Z,4.22
2019-02-04T18:58:04.241Z,4.21
2019-02-04T19:00:33.900Z,4.27
2019-02-04T19:03:16.603Z,4.27
2019-02-04T19:05:35.968Z,4.20
2019-02-04T19:08:05.547Z,4.19
2019-02-04T19:10:34.784Z,4.22
2019-02-04T19:13:04.193Z,4.22
2019-02-04T19:15:33.523Z,4.21
2019-02-04T19:18:09.198Z,4.30
2019-02-04T19:20:38.557Z,4.31
2019-02-04T19:23:07.770Z,4.35
2019-02-04T19:25:37.042Z,4.34
2019-02-04T19:28:06.930Z,4.41
2019-02-04T19:30:45.479Z,4.42
2019-02-04T19:33:14.691Z,4.46
2019-02-04T19:35:44.085Z,4.45
2019-02-04T19:38:13.338Z,4.46
2019-02-04T19:40:42.598Z,4.50
2019-02-04T19:43:11.799Z,4.49
2019-02-04T19:45:41.087Z,4.52
2019-02-04T19:48:10.290Z,4.53
2019-02-04T19:50:39.622Z,4.57
2019-02-04T19:53:09.144Z,4.61
2019-02-04T19:55:38.630Z,4.61
2019-02-04T19:58:08.114Z,4.62
2019-02-04T20:00:37.440Z,4.63
2019-02-04T20:03:07.708Z,4.66
2019-02-04T20:05:37.240Z,4.68
2019-02-04T20:08:06.463Z,4.64
2019-02-04T20:10:36.016Z,4.67
2019-02-04T20:13:05.294Z,4.67
2019-02-04T20:15:34.654Z,4.67
2019-02-04T20:18:04.293Z,4.66
2019-02-04T20:20:33.694Z,4.68
2019-02-04T20:23:02.888Z,4.65
2019-02-04T20:25:33.757Z,4.68
2019-02-04T20:28:06.613Z,4.68
2019-02-04T20:30:46.066Z,4.66
2019-02-04T20:33:14.464Z,4.68
2019-02-04T20:35:43.701Z,4.68
2019-02-04T20:38:12.905Z,4.69
2019-02-04T20:40:42.529Z,4.70
2019-02-04T20:43:11.741Z,4.69
2019-02-04T20:45:40.989Z,4.65
2019-02-04T20:48:12.502Z,4.67
2019-02-04T20:50:44.602Z,4.67
2019-02-04T20:53:15.515Z,4.65
2019-02-04T20:55:45.059Z,4.64
2019-02-04T20:58:14.313Z,4.62
2019-02-04T21:00:43.708Z,4.63
2019-02-04T21:03:13.241Z,4.61
2019-02-04T21:05:43.744Z,4.62
2019-02-04T21:08:13.056Z,4.61
2019-02-04T21:10:42.394Z,4.62
2019-02-04T21:13:11.607Z,4.59
2019-02-04T21:15:40.890Z,4.59
2019-02-04T21:18:10.188Z,4.59
2019-02-04T21:20:39.454Z,4.60
2019-02-04T21:23:08.694Z,4.56
2019-02-04T21:25:37.926Z,4.57
2019-02-04T21:28:07.121Z,4.56
2019-02-04T21:30:40.819Z,4.61
2019-02-04T21:33:10.023Z,4.63
2019-02-04T21:35:39.459Z,4.66
2019-02-04T21:38:09.450Z,4.69
2019-02-04T21:40:38.693Z,4.71
2019-02-04T21:43:08.274Z,4.72
2019-02-04T21:45:37.505Z,4.77
2019-02-04T21:48:06.705Z,4.78
2019-02-04T21:50:35.971Z,4.79
2019-02-04T21:53:05.675Z,4.78
2019-02-04T21:55:38.553Z,4.77
2019-02-04T21:58:08.399Z,4.73
2019-02-04T22:00:39.756Z,4.71
2019-02-04T22:03:09.068Z,4.74
2019-02-04T22:05:38.292Z,4.71
2019-02-04T22:08:07.629Z,4.72
2019-02-04T22:10:37.083Z,4.68
2019-02-04T22:13:07.886Z,4.70
2019-02-04T22:15:37.496Z,4.69
2019-02-04T22:18:06.925Z,4.70
2019-02-04T22:20:37.042Z,4.69
2019-02-04T22:23:06.288Z,4.66
2019-02-04T22:25:35.561Z,4.65
2019-02-04T22:28:04.963Z,4.63
2019-02-04T22:30:36.057Z,4.64
2019-02-04T22:33:05.264Z,4.66
2019-02-04T22:35:34.515Z,4.66
2019-02-04T22:38:05.183Z,4.68
2019-02-04T22:40:34.486Z,4.68
2019-02-04T22:43:04.245Z,4.70
2019-02-04T22:45:33.470Z,4.71
2019-02-04T22:48:02.791Z,4.68
2019-02-04T22:50:32.080Z,4.67
2019-02-04T22:53:02.415Z,4.67
2019-02-04T22:55:32.593Z,4.69
2019-02-04T22:58:03.046Z,4.70
2019-02-04T23:00:49.021Z,4.71
2019-02-04T23:03:24.168Z,4.69
2019-02-04T23:05:53.524Z,4.70
2019-02-04T23:08:22.823Z,4.69
2019-02-04T23:10:52.166Z,4.67
2019-02-04T23:13:21.433Z,4.66
2019-02-04T23:15:53.890Z,4.68
2019-02-04T23:18:21.768Z,4.66
2019-02-04T23:20:51.277Z,4.67
2019-02-04T23:23:20.785Z,4.66
2019-02-04T23:25:49.989Z,4.67
2019-02-04T23:28:19.348Z,4.68
2019-02-04T23:30:49.015Z,4.67
2019-02-04T23:33:18.316Z,4.66
2019-02-04T23:35:47.771Z,4.64
2019-02-04T23:38:17.053Z,4.66
2019-02-04T23:40:46.286Z,4.68
2019-02-04T23:43:15.509Z,4.67
2019-02-04T23:45:44.949Z,4.68
2019-02-04T23:48:14.198Z,4.68
2019-02-04T23:50:43.392Z,4.61
2019-02-04T23:53:12.620Z,4.64
2019-02-04T23:55:41.887Z,4.63
2019-02-04T23:58:11.664Z,4.64
